Time;durP1;ratioP1;P1;durP2;ratioP2;P2;SDS_P1;SDS_P2;PMS_P1;PMS_P2;Temp;Humidity;BMP_temperature;BMP_pressure;BME280_temperature;BME280_humidity;BME280_pressure;Samples;Min_cycle;Max_cycle;Signal;HPM_P1;HPM_P2
2023/04/24 00:02:20;;;;;;;0.40;0.30;;;;;;;20.28;57.06;99384.72;19880586;29;20083;-62
2023/04/24 00:12:21;;;;;;;0.20;0.20;;;;;;;20.24;57.05;99364.50;19881713;29;20491;-63
2023/04/24 00:22:24;;;;;;;0.40;0.30;;;;;;;20.24;56.93;99366.34;19880647;29;20058;-62
2023/04/24 00:32:26;;;;;;;0.17;0.17;;;;;;;20.23;56.74;99370.09;19877122;29;20074;-63
2023/04/24 00:42:29;;;;;;;0.30;0.30;;;;;;;20.20;56.89;99356.97;19875756;29;20067;-62
2023/04/24 00:52:32;;;;;;;0.30;0.30;;;;;;;20.23;56.82;99353.88;19892496;29;20070;-62
2023/04/24 01:02:34;;;;;;;0.30;0.30;;;;;;;20.23;56.67;99354.72;19887147;29;20130;-62
2023/04/24 01:12:37;;;;;;;0.40;0.40;;;;;;;20.23;56.39;99357.44;19889581;29;20062;-62
2023/04/24 01:22:39;;;;;;;0.20;0.20;;;;;;;20.23;56.36;99356.56;19889557;29;20469;-62
2023/04/24 01:32:44;;;;;;;0.25;0.20;;;;;;;20.22;56.34;99357.59;19885724;29;20137;-62
2023/04/24 01:42:46;;;;;;;0.22;0.10;;;;;;;20.21;56.29;99356.78;19880841;29;20062;-62
2023/04/24 01:52:48;;;;;;;0.28;0.25;;;;;;;20.20;56.36;99365.06;19876441;29;20107;-62
2023/04/24 02:02:49;;;;;;;0.70;0.40;;;;;;;20.20;57.04;99378.56;19887077;29;20071;-62
2023/04/24 02:12:52;;;;;;;2.30;0.47;;;;;;;20.19;56.76;99380.47;19892587;29;20478;-63
2023/04/24 02:22:57;;;;;;;0.50;0.20;;;;;;;20.17;56.44;99395.16;19889454;29;20055;-63
2023/04/24 02:32:59;;;;;;;0.45;0.20;;;;;;;20.14;56.09;99383.72;19879826;29;20050;-62
2023/04/24 02:43:01;;;;;;;0.55;0.40;;;;;;;20.13;56.14;99395.53;19887208;29;20050;-63
2023/04/24 02:53:03;;;;;;;0.60;0.40;;;;;;;20.05;56.06;99379.44;19885250;29;20580;-62
2023/04/24 03:03:05;;;;;;;0.38;0.30;;;;;;;20.10;55.95;99393.22;19886016;29;20061;-62
2023/04/24 03:13:07;;;;;;;0.20;0.20;;;;;;;20.08;55.70;99391.72;19884418;29;20137;-62
2023/04/24 03:23:09;;;;;;;0.30;0.30;;;;;;;20.07;55.82;99387.34;19880233;29;20089;-62
2023/04/24 03:33:12;;;;;;;0.20;0.20;;;;;;;20.05;55.60;99394.78;19877080;29;20427;-62
2023/04/24 03:43:21;;;;;;;0.77;0.40;;;;;;;20.03;55.66;99402.25;19879715;29;20073;-63
2023/04/24 03:53:24;;;;;;;4.03;0.60;;;;;;;20.02;55.66;99401.44;19869445;29;20539;-63
2023/04/24 04:03:26;;;;;;;0.30;0.22;;;;;;;20.01;55.89;99399.75;19851795;29;20411;-63
2023/04/24 04:13:28;;;;;;;2.00;1.13;;;;;;;20.00;57.06;99408.88;19862151;29;20420;-64
2023/04/24 04:23:31;;;;;;;0.80;0.47;;;;;;;19.98;59.07;99410.94;19894031;29;20059;-65
2023/04/24 04:33:42;;;;;;;1.58;0.63;;;;;;;20.03;59.35;99424.72;19887519;29;20059;-66
2023/04/24 04:43:44;;;;;;;0.65;0.40;;;;;;;20.05;59.37;99443.41;19882989;29;20145;-65
2023/04/24 04:53:46;;;;;;;1.30;0.70;;;;;;;20.04;59.06;99449.84;19888382;29;20508;-65
2023/04/24 05:03:48;;;;;;;0.68;0.43;;;;;;;20.02;58.48;99439.25;19887761;29;20076;-65
2023/04/24 05:13:51;;;;;;;0.50;0.45;;;;;;;20.01;58.25;99451.06;19870842;29;20061;-66
2023/04/24 05:23:58;;;;;;;1.33;0.50;;;;;;;20.03;58.33;99462.53;19884906;29;20046;-65
2023/04/24 05:34:18;;;;;;;0.40;0.30;;;;;;;20.04;57.92;99464.22;19871822;29;20138;-65
2023/04/24 05:44:24;;;;;;;0.22;0.22;;;;;;;20.05;57.54;99471.28;19881082;29;20055;-65
2023/04/24 05:54:25;;;;;;;0.20;0.20;;;;;;;20.07;57.51;99474.66;19887983;29;20057;-65
2023/04/24 06:04:27;;;;;;;0.55;0.20;;;;;;;20.11;57.29;99470.53;19868746;29;20526;-65
2023/04/24 06:14:29;;;;;;;0.20;0.10;;;;;;;20.14;57.47;99480.97;19873690;29;20062;-64
2023/04/24 06:24:48;;;;;;;0.40;0.20;;;;;;;20.21;58.09;99491.03;19886638;29;20066;-65
2023/04/24 06:34:52;;;;;;;1.10;0.30;;;;;;;20.19;58.60;99487.69;19891379;29;20099;-66
2023/04/24 06:44:54;;;;;;;0.57;0.30;;;;;;;20.28;58.86;99509.03;19850987;29;20059;-64
2023/04/24 06:55:02;;;;;;;0.98;0.40;;;;;;;20.34;59.24;99517.41;19844303;29;20050;-65
2023/04/24 07:05:05;;;;;;;0.20;0.20;;;;;;;20.35;59.71;99525.34;19840027;29;20115;-64
2023/04/24 07:15:08;;;;;;;0.63;0.20;;;;;;;20.39;59.73;99532.06;19835186;29;20043;-64
2023/04/24 07:25:09;;;;;;;0.40;0.22;;;;;;;20.43;59.69;99554.13;19853758;29;20143;-64
2023/04/24 07:35:11;;;;;;;0.40;0.20;;;;;;;20.42;59.57;99566.81;19870065;29;20081;-65
2023/04/24 07:45:13;;;;;;;0.52;0.30;;;;;;;20.37;59.98;99574.66;19866628;29;20084;-66
2023/04/24 07:55:15;;;;;;;0.20;0.20;;;;;;;20.45;60.00;99591.81;19849445;29;20046;-64
2023/04/24 08:05:17;;;;;;;0.20;0.20;;;;;;;20.47;60.12;99606.78;19876879;29;20070;-66
2023/04/24 08:15:19;;;;;;;0.15;0.13;;;;;;;20.49;60.13;99639.91;19891634;29;20123;-64
2023/04/24 08:25:22;;;;;;;1.42;0.25;;;;;;;20.49;59.95;99652.59;19890720;29;20135;-65
2023/04/24 08:35:24;;;;;;;0.28;0.20;;;;;;;20.51;59.87;99677.56;19890275;29;20080;-65
2023/04/24 08:45:26;;;;;;;0.50;0.30;;;;;;;20.52;59.40;99692.78;19892664;29;20066;-64
2023/04/24 08:55:30;;;;;;;0.28;0.20;;;;;;;20.53;59.29;99708.78;19886376;29;20764;-64
2023/04/24 09:05:32;;;;;;;1.60;0.40;;;;;;;20.56;58.94;99735.50;19886459;29;20090;-64
2023/04/24 09:15:35;;;;;;;1.05;0.60;;;;;;;20.58;58.70;99755.06;19878818;29;20880;-65
2023/04/24 09:25:36;;;;;;;1.42;0.65;;;;;;;20.60;58.70;99781.91;19878955;29;20096;-65
2023/04/24 09:35:49;;;;;;;1.95;0.60;;;;;;;20.58;58.41;99790.22;19865316;29;20104;-65
2023/04/24 09:45:56;;;;;;;2.47;0.80;;;;;;;20.48;58.11;99807.72;19892421;29;20061;-65
2023/04/24 09:56:09;;;;;;;1.52;0.90;;;;;;;20.51;57.66;99837.91;19891939;29;20142;-65
2023/04/24 10:06:12;;;;;;;1.10;0.77;;;;;;;20.52;57.30;99849.56;19889491;29;20100;-65
2023/04/24 10:16:14;;;;;;;1.77;1.00;;;;;;;20.50;57.14;99871.38;19887642;29;20534;-65
2023/04/24 10:26:17;;;;;;;1.20;1.00;;;;;;;20.48;56.97;99884.22;19886574;29;20061;-65
2023/04/24 10:36:22;;;;;;;2.08;1.10;;;;;;;20.52;56.68;99903.66;19885198;29;20124;-65
2023/04/24 10:46:28;;;;;;;1.13;1.00;;;;;;;20.56;56.46;99918.50;19900797;29;20119;-65
2023/04/24 10:56:32;;;;;;;1.20;1.10;;;;;;;20.55;56.10;99935.75;19890416;29;20086;-65
2023/04/24 11:06:35;;;;;;;;;;;;;;;20.55;55.82;99960.06;19888920;29;20051;-65
2023/04/24 11:16:56;;;;;;;1.10;1.00;;;;;;;20.54;55.55;99980.84;19887888;29;19932;-65
2023/04/24 11:27:01;;;;;;;2.47;1.27;;;;;;;20.59;55.10;99991.16;19888654;29;20058;-65
2023/04/24 11:37:03;;;;;;;1.67;1.00;;;;;;;20.61;54.84;100004.50;19886326;29;20062;-65
2023/04/24 11:47:06;;;;;;;1.02;0.63;;;;;;;20.53;54.65;100008.06;19886628;29;20059;-65
2023/04/24 11:57:08;;;;;;;2.57;1.10;;;;;;;20.57;54.40;100023.78;19887192;29;20078;-65
2023/04/24 12:07:10;;;;;;;1.30;0.93;;;;;;;20.59;53.94;100042.53;19885513;29;20086;-65
2023/04/24 12:17:12;;;;;;;1.42;0.70;;;;;;;20.56;53.78;100059.97;19899519;29;20542;-65
2023/04/24 12:27:20;;;;;;;1.83;0.85;;;;;;;20.52;53.51;100066.72;19885946;29;20119;-65
2023/04/24 12:37:26;;;;;;;1.80;0.82;;;;;;;20.52;53.02;100071.28;19884762;29;20098;-65
2023/04/24 12:47:28;;;;;;;1.83;0.80;;;;;;;20.51;52.53;100075.84;19896851;29;20527;-65
2023/04/24 12:57:30;;;;;;;0.98;0.80;;;;;;;20.53;52.44;100095.44;19898771;29;20062;-65
2023/04/24 13:07:33;;;;;;;2.60;0.80;;;;;;;20.57;52.03;100101.34;19897063;29;20098;-65
2023/04/24 13:17:34;;;;;;;1.15;0.70;;;;;;;20.57;51.74;100112.16;19896553;29;20107;-65
2023/04/24 13:27:39;;;;;;;1.27;0.70;;;;;;;20.50;51.66;100128.22;19896129;29;20142;-65
2023/04/24 13:37:41;;;;;;;0.85;0.60;;;;;;;20.50;51.49;100146.31;19895193;29;20069;-65
2023/04/24 13:47:43;;;;;;;0.60;0.60;;;;;;;20.50;51.19;100149.03;19894823;29;20064;-65
2023/04/24 13:57:44;;;;;;;0.68;0.50;;;;;;;20.46;50.94;100150.38;19893110;29;20419;-65
2023/04/24 14:07:46;;;;;;;0.95;0.65;;;;;;;20.39;50.79;100159.19;19892664;29;20565;-65
2023/04/24 14:17:49;;;;;;;0.95;0.77;;;;;;;20.38;50.78;100167.44;19892721;29;20536;-65
2023/04/24 14:27:51;;;;;;;1.67;0.65;;;;;;;20.38;50.39;100165.63;19890793;29;20054;-65
2023/04/24 14:37:54;;;;;;;0.90;0.52;;;;;;;20.36;50.19;100169.47;19890766;29;20085;-65
2023/04/24 14:47:57;;;;;;;1.73;0.60;;;;;;;20.34;50.08;100177.78;19890679;29;20050;-65
2023/04/24 14:57:59;;;;;;;0.90;0.60;;;;;;;20.31;49.90;100188.06;19888770;29;20091;-65
2023/04/24 15:08:01;;;;;;;1.35;0.75;;;;;;;20.28;49.91;100190.09;19888262;29;20133;-65
2023/04/24 15:18:04;;;;;;;1.42;0.50;;;;;;;20.31;49.58;100201.59;19889185;29;20050;-65
2023/04/24 15:28:06;;;;;;;2.67;0.75;;;;;;;20.29;49.65;100204.44;19886828;29;20063;-65
2023/04/24 15:38:08;;;;;;;2.28;0.88;;;;;;;20.31;49.65;100207.81;19887445;29;20103;-65
2023/04/24 15:48:10;;;;;;;1.13;0.60;;;;;;;20.29;49.62;100228.78;19887093;29;20066;-65
2023/04/24 15:58:11;;;;;;;1.25;0.50;;;;;;;20.29;49.69;100228.78;19883603;29;20055;-65
2023/04/24 16:08:14;;;;;;;1.85;1.08;;;;;;;20.35;49.70;100243.50;19861877;29;20143;-65
2023/04/24 16:18:16;;;;;;;2.10;0.80;;;;;;;20.43;50.60;100241.63;19886431;29;20466;-65
2023/04/24 16:28:18;;;;;;;17.35;10.15;;;;;;;20.56;52.92;100238.44;19887742;29;20054;-65
2023/04/24 16:38:19;;;;;;;26.60;12.40;;;;;;;20.61;53.74;100248.72;19874478;29;20082;-66
2023/04/24 16:48:21;;;;;;;15.00;8.50;;;;;;;20.65;54.84;100251.94;19883919;29;20127;-66
2023/04/24 16:58:23;;;;;;;14.32;6.50;;;;;;;20.66;55.34;100259.03;19882818;29;20102;-66
2023/04/24 17:08:25;;;;;;;7.55;4.38;;;;;;;20.65;55.18;100263.59;19891518;29;20515;-66
2023/04/24 17:18:26;;;;;;;8.23;4.20;;;;;;;20.63;54.75;100257.50;19896133;29;20059;-65
2023/04/24 17:28:30;;;;;;;5.55;2.95;;;;;;;20.52;55.03;100268.66;19857455;29;20069;-65
2023/04/24 17:38:32;;;;;;;4.65;2.50;;;;;;;20.38;54.85;100279.16;19876990;29;20078;-63
2023/04/24 17:48:34;;;;;;;4.15;2.33;;;;;;;20.42;54.62;100277.81;19876239;29;20058;-66
2023/04/24 17:58:36;;;;;;;4.57;1.80;;;;;;;20.46;54.57;100288.28;19866610;29;20121;-63
2023/04/24 18:08:37;;;;;;;3.58;1.80;;;;;;;20.43;54.22;100294.84;19892928;29;20522;-63
2023/04/24 18:18:39;;;;;;;2.50;1.73;;;;;;;20.40;54.07;100312.28;19891011;29;20092;-63
2023/04/24 18:28:42;;;;;;;1.80;1.25;;;;;;;20.36;53.98;100316.31;19886004;29;20158;-63
2023/04/24 18:38:44;;;;;;;1.77;1.27;;;;;;;20.29;53.57;100315.28;19883483;29;20058;-63
2023/04/24 18:48:46;;;;;;;1.20;1.00;;;;;;;20.33;53.67;100346.41;19876341;29;20065;-61
2023/04/24 18:58:48;;;;;;;1.95;1.10;;;;;;;20.30;53.25;100365.63;19890153;29;20059;-61
2023/04/24 19:08:51;;;;;;;1.95;1.10;;;;;;;20.25;52.95;100362.56;19903047;29;20055;-62
2023/04/24 19:18:53;;;;;;;1.60;1.00;;;;;;;20.18;52.65;100366.94;19883441;29;20490;-61
2023/04/24 19:28:56;;;;;;;1.90;1.20;;;;;;;20.17;52.27;100381.47;19885833;29;20572;-61
2023/04/24 19:38:58;;;;;;;2.15;1.15;;;;;;;20.14;52.09;100383.50;19884331;29;20104;-61
2023/04/24 19:49:00;;;;;;;1.30;0.77;;;;;;;20.11;51.85;100378.41;19879149;29;20066;-61
2023/04/24 19:59:01;;;;;;;2.85;1.05;;;;;;;20.09;51.58;100391.25;19885787;29;20473;-61
2023/04/24 20:09:04;;;;;;;1.40;0.90;;;;;;;20.06;51.66;100394.28;19880112;29;20098;-61
2023/04/24 20:19:06;;;;;;;1.27;0.80;;;;;;;20.05;51.67;100398.00;19880254;29;20047;-61
2023/04/24 20:29:10;;;;;;;2.33;1.00;;;;;;;20.04;51.67;100396.28;19880825;29;20106;-61
2023/04/24 20:39:12;;;;;;;2.22;1.08;;;;;;;20.05;51.60;100403.38;19879351;29;20051;-62
2023/04/24 20:49:14;;;;;;;1.10;0.70;;;;;;;20.08;51.42;100399.50;19880153;29;20084;-61
2023/04/24 20:59:15;;;;;;;1.77;0.90;;;;;;;20.10;51.26;100401.03;19880276;29;20436;-61
2023/04/24 21:09:17;;;;;;;1.90;0.77;;;;;;;20.09;51.30;100407.47;19895014;29;20115;-61
2023/04/24 21:19:19;;;;;;;1.95;0.82;;;;;;;20.10;51.11;100419.97;19897230;29;20103;-62
2023/04/24 21:29:21;;;;;;;1.65;0.90;;;;;;;20.11;51.02;100431.63;19893339;29;20059;-61
2023/04/24 21:39:23;;;;;;;2.30;0.80;;;;;;;20.10;51.02;100440.72;19891921;29;20129;-61
2023/04/24 21:49:24;;;;;;;1.42;0.85;;;;;;;20.09;50.91;100441.72;19890849;29;20084;-61
2023/04/24 21:59:26;;;;;;;1.60;0.80;;;;;;;20.09;50.79;100455.25;19890944;29;20466;-61
2023/04/24 22:09:28;;;;;;;1.50;0.73;;;;;;;20.09;50.75;100472.31;19884747;29;20054;-61
2023/04/24 22:19:30;;;;;;;2.33;1.00;;;;;;;20.04;50.63;100482.75;19889435;29;20059;-61
2023/04/24 22:29:32;;;;;;;2.40;1.08;;;;;;;20.00;50.50;100489.50;19888752;29;20074;-62
2023/04/24 22:39:34;;;;;;;2.88;1.20;;;;;;;19.95;50.60;100481.03;19887117;29;20247;-61
2023/04/24 22:49:36;;;;;;;3.17;1.20;;;;;;;19.92;50.43;100498.38;19886973;29;20098;-62
2023/04/24 22:59:38;;;;;;;2.58;1.35;;;;;;;19.89;50.07;100508.66;19881113;29;20504;-61
2023/04/24 23:09:40;;;;;;;4.95;1.50;;;;;;;19.85;50.03;100525.16;19872240;29;20082;-62
2023/04/24 23:19:42;;;;;;;5.20;1.30;;;;;;;19.83;49.85;100540.69;19884586;29;20585;-61
2023/04/24 23:29:44;;;;;;;3.17;1.63;;;;;;;19.82;49.83;100541.69;19880065;29;20062;-61
2023/04/24 23:39:46;;;;;;;3.95;1.48;;;;;;;19.79;49.70;100539.28;19881979;29;20051;-61
2023/04/24 23:49:48;;;;;;;3.70;1.50;;;;;;;19.79;49.27;100543.88;19881324;29;20416;-61
2023/04/24 23:59:50;;;;;;;4.03;1.73;;;;;;;19.78;48.96;100539.47;19880606;29;20103;-61
